Aviation Digital Data Service (ADDS)

Output produced by TAFs form (2029 UTC 24 October 2014)
found at http://aviationweather.gov/adds/tafs/
 
KSAF 241724Z 2418/2518 36010KT P6SM SKC